createdAt,value
2018-08-23T16:52:40.410Z,25.29
2018-08-23T16:55:44.442Z,25.24
2018-08-23T16:58:59.539Z,25.19
2018-08-23T17:02:03.749Z,25.14
2018-08-23T17:05:08.237Z,25.10
2018-08-23T17:08:12.224Z,25.02
2018-08-23T17:11:16.388Z,24.97
2018-08-23T17:14:20.377Z,24.89
2018-08-23T17:17:27.794Z,24.82
2018-08-23T17:20:31.758Z,24.76
2018-08-23T17:23:35.801Z,24.71
2018-08-23T17:26:41.762Z,24.63
2018-08-23T17:29:45.846Z,24.57
2018-08-23T17:32:49.932Z,24.51
2018-08-23T17:35:54.005Z,24.44
2018-08-23T17:38:58.004Z,24.37
2018-08-23T17:42:04.599Z,24.29
2018-08-23T17:45:08.736Z,24.24
2018-08-23T17:48:12.890Z,24.16
2018-08-23T17:51:16.913Z,24.09
2018-08-23T17:54:20.875Z,24.02
2018-08-23T17:57:28.238Z,23.96
2018-08-23T18:00:32.224Z,23.89
2018-08-23T18:03:36.204Z,23.82
2018-08-23T18:06:40.234Z,23.75
2018-08-23T18:09:44.459Z,23.68
2018-08-23T18:12:52.144Z,23.60
2018-08-23T18:16:01.716Z,23.52
2018-08-23T18:19:06.415Z,23.45
2018-08-23T18:22:10.459Z,23.38
2018-08-23T18:25:14.559Z,23.30
2018-08-23T18:28:22.211Z,23.22
2018-08-23T18:31:26.175Z,23.13
2018-08-23T18:34:30.192Z,23.06
2018-08-23T18:37:34.220Z,22.98
2018-08-23T18:40:38.391Z,22.90
2018-08-23T18:43:42.371Z,22.82
2018-08-23T18:46:46.783Z,22.73
2018-08-23T18:49:50.814Z,22.67
2018-08-23T18:52:54.866Z,22.57
2018-08-23T18:55:58.866Z,22.50
2018-08-23T18:59:02.839Z,22.42
2018-08-23T19:02:06.899Z,22.35
2018-08-23T19:05:10.932Z,22.25
2018-08-23T19:08:15.126Z,22.17
2018-08-23T19:18:29.389Z,21.93
2018-08-23T19:21:33.660Z,21.84
2018-08-23T19:24:37.683Z,21.79
2018-08-23T19:27:41.691Z,21.71
2018-08-23T19:30:46.031Z,21.66
2018-08-23T19:33:50.099Z,21.57
2018-08-23T19:36:54.262Z,21.52
2018-08-23T19:39:58.308Z,21.47
2018-08-23T19:43:02.673Z,21.40
2018-08-23T19:46:12.555Z,21.35
2018-08-23T19:49:22.063Z,21.28
2018-08-23T19:52:26.223Z,21.23
2018-08-23T19:55:30.253Z,21.17
2018-08-23T19:58:34.265Z,21.12
2018-08-23T20:01:38.320Z,21.06
2018-08-23T20:04:43.046Z,21.01
2018-08-23T20:07:47.100Z,20.95
2018-08-23T20:10:51.144Z,20.89
2018-08-23T20:13:55.203Z,20.84
2018-08-23T20:16:59.526Z,20.80
2018-08-23T20:20:03.510Z,20.73
2018-08-23T20:23:07.603Z,20.69
2018-08-23T20:26:11.664Z,20.63
2018-08-23T20:29:15.663Z,20.56
2018-08-23T20:32:19.816Z,20.52
2018-08-23T20:35:23.999Z,20.46
2018-08-23T20:38:28.036Z,20.39
2018-08-23T20:41:32.043Z,20.34
2018-08-23T20:44:36.057Z,20.30
2018-08-23T20:47:40.125Z,20.23
2018-08-23T20:50:58.706Z,20.17
2018-08-23T20:54:02.756Z,20.12
2018-08-23T20:57:06.751Z,20.06
2018-08-23T21:00:10.770Z,20.03
2018-08-23T21:03:15.018Z,19.94
2018-08-23T21:06:19.393Z,19.90
2018-08-23T21:09:23.681Z,19.87
2018-08-23T21:12:27.707Z,19.83
2018-08-23T21:15:31.726Z,19.76
2018-08-23T21:18:35.755Z,19.73
2018-08-23T21:21:39.760Z,19.68
2018-08-23T21:24:44.006Z,19.64
2018-08-23T21:27:48.039Z,19.62
2018-08-23T21:34:33.849Z,19.53
2018-08-23T21:37:37.853Z,19.51
2018-08-23T21:40:42.091Z,19.44
2018-08-23T21:43:46.129Z,19.45
2018-08-23T21:46:53.963Z,19.42
2018-08-23T21:49:58.220Z,19.37
2018-08-23T21:53:02.326Z,19.38
2018-08-23T21:56:06.743Z,19.35
2018-08-23T21:59:10.855Z,19.35
2018-08-23T22:02:17.783Z,19.32
2018-08-23T22:05:21.818Z,19.31
2018-08-23T22:08:25.894Z,19.32
2018-08-23T22:11:30.025Z,19.35
2018-08-23T22:14:34.109Z,19.33
2018-08-23T22:17:38.405Z,19.29
2018-08-23T22:20:42.605Z,19.30
2018-08-23T22:23:46.954Z,19.32
2018-08-23T22:26:51.044Z,19.32
2018-08-23T22:29:55.203Z,19.33
2018-08-23T22:32:59.259Z,19.33
2018-08-23T22:36:03.526Z,19.33
2018-08-23T22:39:08.398Z,19.33
2018-08-23T22:42:12.422Z,19.36
2018-08-23T22:45:16.582Z,19.35
2018-08-23T22:48:20.658Z,19.37
2018-08-23T22:51:24.783Z,19.37
2018-08-23T22:54:28.810Z,19.36
2018-08-23T22:57:32.800Z,19.36
2018-08-23T23:00:42.566Z,19.37
2018-08-23T23:03:52.125Z,19.39
2018-08-23T23:06:57.463Z,19.40
2018-08-23T23:10:01.972Z,19.41
2018-08-23T23:13:05.958Z,19.41
2018-08-23T23:16:10.079Z,19.41
2018-08-23T23:19:14.430Z,19.42
2018-08-23T23:22:18.414Z,19.44
2018-08-23T23:25:22.455Z,19.44
2018-08-23T23:28:26.699Z,19.45
2018-08-23T23:31:30.706Z,19.47
2018-08-23T23:34:34.798Z,19.48
2018-08-23T23:37:38.841Z,19.48
2018-08-23T23:40:42.875Z,19.50
2018-08-23T23:43:46.947Z,19.50
2018-08-23T23:46:50.998Z,19.51
2018-08-23T23:49:55.311Z,19.51
2018-08-23T23:52:59.399Z,19.51
2018-08-23T23:56:05.506Z,19.52
2018-08-23T23:59:09.563Z,19.52
